Latest Weather Observations for Stenhouse Bay

IDS60801

Issued at 10:01 pm CDT Thursday 23 February 2017 (issued every 30 minutes, with the page automatically refreshed every 10 minutes)

About weather observations | Map of weather stations | Latest weather observations for SA | Other Formats
Station Details ID: 022049 Name: STENHOUSE BAY Lat: -35.28 Lon: 136.94 Height: 42.0 m
Data from the previous 72 hours. | See also: Recent months at Stenhouse Bay
Date/Time
CDT
Temp
°C
App
Temp
°C
Dew
Point
°C
Rel
Hum
%
Delta-T
°C
Wind Press
QNH
hPa
Press
MSL
hPa
Rain since
9am
mm
Dir  Spd
km/h
Gust
km/h
Spd
kts
Gust
kts
23/09:30pm 17.3 12.4 10.0 62 3.8 SSW 26 33 14 18 1024.3 1024.2 0.0
23/09:00pm 17.3 13.3 10.4 64 3.7 SSW 22 32 12 17 1023.9 1023.8 0.0
23/08:30pm 17.4 12.9 10.1 62 3.9 SSW 24 33 13 18 1023.6 1023.5 0.0
23/08:00pm 17.7 14.0 10.1 61 4.0 SW 20 32 11 17 1023.3 1023.2 0.0
23/07:30pm 18.0 13.9 10.1 60 4.2 SW 22 33 12 18 1022.8 1022.7 0.0
23/07:00pm 18.4 14.0 10.5 60 4.2 SW 24 32 13 17 1022.5 1022.4 0.0
23/06:30pm 19.1 14.8 10.6 58 4.6 SW 24 32 13 17 1022.3 1022.2 0.0
23/06:00pm 19.5 15.6 10.8 57 4.7 SW 22 30 12 16 1022.1 1022.0 0.0
23/05:30pm 20.4 16.6 9.9 51 5.6 SW 20 28 11 15 1021.9 1021.8 0.0
23/05:00pm 20.9 17.3 9.8 49 6.0 SW 19 26 10 14 1021.8 1021.7 0.0
23/04:30pm 21.2 17.4 9.8 48 6.1 SW 20 28 11 15 1021.8 1021.7 0.0
23/04:00pm 21.1 17.1 10.3 50 5.9 SW 22 30 12 16 1021.8 1021.7 0.0
23/03:30pm 21.5 17.9 9.7 47 6.3 WSW 19 24 10 13 1021.7 1021.6 0.0
23/03:00pm 20.5 16.8 10.0 51 5.6 SW 20 28 11 15 1022.0 1021.9 0.0
23/02:30pm 20.2 16.6 10.0 52 5.5 SW 19 26 10 14 1022.1 1022.0 0.0
23/02:00pm 20.9 17.7 10.1 50 5.8 SW 17 24 9 13 1022.0 1021.9 0.0
23/01:30pm 20.9 17.9 10.7 52 5.6 SW 17 24 9 13 1021.9 1021.8 0.0
23/01:00pm 20.4 17.4 10.5 53 5.4 SSW 17 22 9 12 1021.8 1021.7 0.0
23/12:30pm 20.8 18.3 10.9 53 5.4 SSW 15 20 8 11 1021.9 1021.8 0.0
23/12:00pm 21.1 19.2 10.6 51 5.7 SSW 11 17 6 9 1021.8 1021.7 0.0
23/11:30am 20.5 18.4 9.7 50 5.8 SSW 11 15 6 8 1021.7 1021.6 0.0
23/11:00am 20.1 17.7 9.9 52 5.5 SSW 13 20 7 11 1021.6 1021.5 0.0
23/10:30am 20.8 18.6 10.9 53 5.4 SSW 13 19 7 10 1021.3 1021.2 0.0
23/10:00am 19.2 16.8 10.2 56 4.8 SSW 13 20 7 11 1021.1 1021.0 0.0
23/09:30am 18.8 15.7 10.4 58 4.5 SSW 17 26 9 14 1020.8 1020.7 0.0
23/09:00am 19.1 15.6 10.1 56 4.8 SSW 19 26 10 14 1020.3 1020.2 0.0
23/08:30am 17.8 14.2 9.7 59 4.3 SW 19 28 10 15 1019.7 1019.6 0.0
23/08:00am 17.5 14.0 10.1 62 3.9 SSW 19 30 10 16 1019.3 1019.2 0.0
23/07:30am 17.1 13.5 9.8 62 3.8 SW 19 26 10 14 1018.9 1018.8 0.0
23/07:00am 17.2 13.2 10.3 64 3.7 SW 22 33 12 18 1018.3 1018.2 0.0
23/06:30am 16.9 12.4 10.1 64 3.6 SW 24 32 13 17 1017.9 1017.8 0.0
23/06:00am 16.9 13.4 11.0 68 3.2 SW 20 33 11 18 1017.3 1017.1 0.0
23/05:30am 16.8 12.1 12.1 74 2.6 SW 28 37 15 20 1017.1 1016.9 0.0
23/05:00am 16.9 12.1 11.8 72 2.8 SW 28 35 15 19 1016.9 1016.7 0.0
23/04:30am 17.0 12.1 11.3 69 3.1 SW 28 37 15 20 1016.5 1016.3 0.0
23/04:00am 17.1 11.5 11.4 69 3.1 WSW 32 43 17 23 1016.4 1016.2 0.0
23/03:30am 17.3 12.4 12.4 73 2.7 WSW 30 44 16 24 1016.3 1016.1 0.0
23/03:00am 17.3 12.5 11.8 70 3.0 WSW 28 37 15 20 1016.5 1016.3 0.0
23/02:30am 17.4 12.4 10.8 65 3.5 WSW 28 37 15 20 1016.4 1016.2 0.0
23/02:00am 17.0 13.7 11.5 70 3.0 WSW 20 30 11 16 1016.8 1016.6 0.0
23/01:30am 17.0 14.0 11.9 72 2.8 WSW 19 24 10 13 1016.9 1016.7 0.0
23/01:00am 17.0 13.7 11.5 70 3.0 W 20 33 11 18 1016.9 1016.7 0.0
23/12:30am 17.1 14.2 12.2 73 2.7 W 19 24 10 13 1016.8 1016.6 0.0
23/12:00am 17.4 14.6 11.4 68 3.3 W 17 24 9 13 1016.8 1016.6 0.0
 
Date/Time
CDT
Temp
°C
App
Temp
°C
Dew
Point
°C
Rel
Hum
%
Delta-T
°C
Wind Press
QNH
hPa
Press
MSL
hPa
Rain since
9am
mm
Dir  Spd
km/h
Gust
km/h
Spd
kts
Gust
kts
22/11:30pm 18.1 14.9 11.4 65 3.7 W 19 30 10 16 1016.8 1016.6 0.0
22/11:00pm 18.0 14.2 11.1 64 3.7 W 22 33 12 18 1016.6 1016.4 0.0
22/10:30pm 17.8 14.4 11.4 66 3.5 W 20 30 11 16 1016.4 1016.2 0.0
22/10:00pm 17.9 14.0 12.1 69 3.2 W 24 35 13 19 1016.0 1015.8 0.0
22/09:30pm 17.8 13.6 12.3 70 3.0 W 26 37 14 20 1015.4 1015.2 0.0
22/09:00pm 16.9 14.1 14.2 84 1.5 WNW 22 33 12 18 1014.8 1014.6 0.0
22/08:30pm 18.5 14.0 12.7 69 3.2 WNW 28 39 15 21 1014.2 1014.0 0.0
22/08:00pm 18.8 15.5 13.9 73 2.8 WNW 24 37 13 20 1013.9 1013.7 0.0
22/07:30pm 19.1 14.3 12.8 67 3.5 WNW 30 48 16 26 1013.3 1013.1 0.0
22/07:02pm 20.1 14.7 12.3 61 4.4 WNW 32 50 17 27 1012.7 1012.5 0.0
22/07:00pm 20.3 14.9 12.8 62 4.2 WNW 33 50 18 27 1012.7 1012.5 0.0
22/06:31pm 21.0 15.0 12.2 57 4.9 WNW 35 54 19 29 1012.5 1012.3 0.0
22/06:30pm 20.8 14.4 12.0 57 4.9 WNW 37 54 20 29 1012.4 1012.2 0.0
22/06:00pm 21.1 15.0 11.7 55 5.2 WNW 35 61 19 33 1012.0 1011.8 0.0
22/05:30pm 22.2 15.2 11.3 50 6.1 WNW 39 57 21 31 1011.5 1011.3 0.0
22/05:00pm 22.7 15.6 10.8 47 6.6 WNW 39 57 21 31 1011.2 1011.0 0.0
22/04:38pm 23.3 16.2 11.0 46 6.9 WNW 39 57 21 31 1011.2 1011.0 0.0
22/04:30pm 22.9 15.9 11.3 48 6.5 WNW 39 56 21 30 1011.1 1010.9 0.0
22/04:00pm 23.3 17.2 11.7 48 6.5 WNW 35 63 19 34 1011.0 1010.8 0.0
22/03:30pm 23.7 16.8 10.4 43 7.4 WNW 37 57 20 31 1010.6 1010.4 0.0
22/03:21pm 23.3 16.1 10.4 44 7.1 WNW 39 57 21 31 1010.5 1010.3 0.0
22/03:00pm 23.8 16.9 11.5 46 6.9 WNW 39 57 21 31 1010.5 1010.3 0.0
22/02:35pm 24.1 17.1 11.1 44 7.3 WNW 39 59 21 32 1010.6 1010.4 0.0
22/02:30pm 23.4 15.5 10.8 45 7.0 WNW 43 59 23 32 1010.5 1010.3 0.0
22/02:00pm 23.9 17.1 10.6 43 7.4 WNW 37 56 20 30 1010.0 1009.8 0.0
22/01:45pm 23.9 17.7 11.3 45 7.1 W 35 61 19 33 1010.1 1009.9 0.0
22/01:30pm 24.3 18.3 10.2 41 7.8 WNW 32 46 17 25 1009.9 1009.7 0.0
22/01:00pm 22.8 15.4 9.9 44 7.0 WNW 39 59 21 32 1009.6 1009.4 0.0
22/12:55pm 22.9 16.2 9.7 43 7.2 WNW 35 56 19 30 1009.6 1009.4 0.0
22/12:30pm 22.3 16.4 10.5 47 6.5 NW 32 48 17 26 1009.8 1009.6 0.0
22/12:01pm 21.9 14.4 9.4 45 6.7 WNW 39 57 21 31 1010.1 1009.9 0.0
22/12:00pm 21.5 13.6 9.4 46 6.5 WNW 41 57 22 31 1010.1 1009.9 0.0
22/11:36am 21.7 14.5 9.3 45 6.6 WNW 37 57 20 31 1009.9 1009.7 0.0
22/11:30am 21.7 14.3 9.9 47 6.4 WNW 39 54 21 29 1009.7 1009.5 0.0
22/11:07am 20.0 13.1 9.0 49 5.8 NW 35 56 19 30 1009.5 1009.3 0.0
22/11:00am 20.1 14.5 10.2 53 5.3 NW 30 46 16 25 1009.5 1009.3 0.0
22/10:30am 19.7 15.4 10.7 56 4.9 NW 24 37 13 20 1008.1 1007.9 0.0
22/10:00am 20.3 15.9 11.8 58 4.7 WNW 26 46 14 25 1009.4 1009.2 0.0
22/09:30am 19.7 15.4 12.0 61 4.3 W 26 41 14 22 1009.6 1009.4 0.0
22/09:00am 20.1 15.1 14.0 68 3.5 W 33 46 18 25 1009.0 1008.8 0.0
22/08:31am 20.9 15.8 14.8 68 3.6 W 35 57 19 31 1008.0 1007.8 0.0
22/08:30am 21.0 16.3 14.9 68 3.6 W 33 50 18 27 1008.1 1007.9 0.0
22/08:05am 22.2 16.2 14.3 61 4.6 NW 39 65 21 35 1007.1 1006.9 0.0
22/08:01am 23.6 17.4 12.6 50 6.3 NNW 37 65 20 35 1006.8 1006.6 0.0
22/08:00am 23.7 17.5 12.7 50 6.3 NNW 37 52 20 28 1006.7 1006.5 0.0
22/07:30am 23.3 17.6 11.7 48 6.6 N 33 52 18 28 1005.7 1005.6 0.0
22/07:00am 22.7 17.0 11.7 49 6.2 N 33 48 18 26 1004.5 1004.4 0.0
22/06:35am 22.7 16.3 12.0 50 6.0 N 37 57 20 31 1004.0 1003.9 0.0
22/06:30am 22.8 16.0 11.8 50 6.2 N 39 57 21 31 1004.0 1003.9 0.0
22/06:00am 23.3 15.8 10.7 45 7.0 N 41 56 22 30 1003.8 1003.7 0.0
22/05:30am 23.7 15.4 9.3 40 7.8 N 43 61 23 33 1003.6 1003.5 0.0
22/05:14am 23.8 15.8 9.0 39 8.0 N 41 59 22 32 1003.8 1003.7 0.0
22/05:00am 23.8 15.7 8.6 38 8.1 N 41 57 22 31 1003.9 1003.8 0.0
22/04:30am 23.8 16.0 8.2 37 8.3 N 39 50 21 27 1004.2 1004.1 0.0
22/04:00am 23.8 16.4 8.2 37 8.3 N 37 50 20 27 1004.5 1004.4 0.0
22/03:30am 23.7 16.6 8.2 37 8.3 N 35 46 19 25 1005.0 1004.9 0.0
22/03:00am 23.8 16.4 8.2 37 8.3 N 37 50 20 27 1005.4 1005.3 0.0
22/02:30am 23.9 17.4 8.3 37 8.3 N 32 46 17 25 1006.5 1006.3 0.0
22/02:00am 23.1 17.3 8.0 38 8.0 N 28 37 15 20 1007.0 1006.8 0.0
22/01:30am 21.9 17.4 8.4 42 7.1 NNE 22 30 12 16 1007.7 1007.5 0.0
22/01:00am 20.8 16.9 8.8 46 6.3 NNE 19 22 10 12 1008.3 1008.1 0.0
22/12:30am 20.8 17.1 9.4 48 6.1 NNE 19 24 10 13 1008.5 1008.3 0.0
22/12:00am 21.0 17.5 10.8 52 5.6 NNE 20 28 11 15 1008.7 1008.5 0.0
 
Date/Time
CDT
Temp
°C
App
Temp
°C
Dew
Point
°C
Rel
Hum
%
Delta-T
°C
Wind Press
QNH
hPa
Press
MSL
hPa
Rain since
9am
mm
Dir  Spd
km/h
Gust
km/h
Spd
kts
Gust
kts
21/11:30pm 21.1 16.9 12.3 57 5.0 NE 26 32 14 17 1009.3 1009.1 0.0
21/11:00pm 21.3 17.2 12.7 58 4.9 NE 26 32 14 17 1009.8 1009.6 0.0
21/10:30pm 21.5 17.6 13.4 60 4.7 NE 26 33 14 18 1010.0 1009.8 0.0
21/10:00pm 20.8 19.1 15.8 73 3.0 NE 19 22 10 12 1010.5 1010.3 0.0
21/09:30pm 20.9 19.3 16.1 74 2.9 ENE 19 22 10 12 1010.7 1010.5 0.0
21/09:00pm 21.0 19.2 15.5 71 3.3 ENE 19 26 10 14 1010.8 1010.6 0.0
21/08:30pm 21.1 18.9 15.9 72 3.1 ENE 22 28 12 15 1010.7 1010.5 0.0
21/08:00pm 21.2 19.1 16.2 73 3.0 ENE 22 30 12 16 1010.5 1010.3 0.0
21/07:30pm 21.5 19.6 15.8 70 3.4 E 20 28 11 15 1010.5 1010.3 0.0
21/07:00pm 21.7 19.4 15.8 69 3.5 E 22 30 12 16 1010.5 1010.3 0.0
21/06:30pm 22.4 19.7 15.7 66 4.0 E 24 32 13 17 1010.8 1010.6 0.0
21/06:00pm 22.8 20.1 15.6 64 4.3 E 24 32 13 17 1011.2 1011.0 0.0
21/05:30pm 23.5 21.1 15.5 60 4.8 E 22 28 12 15 1011.7 1011.5 0.0
21/05:00pm 23.6 21.6 15.4 60 4.9 E 20 28 11 15 1012.0 1011.8 0.0
21/04:30pm 24.5 23.2 15.7 58 5.3 ESE 17 22 9 12 1012.5 1012.3 0.0
21/04:00pm 24.4 23.9 15.9 59 5.2 SE 13 17 7 9 1013.2 1013.0 0.0
21/03:30pm 23.3 22.4 15.9 63 4.5 SE 15 19 8 10 1013.7 1013.5 0.0
21/03:00pm 24.6 23.8 16.1 59 5.2 ESE 15 19 8 10 1014.0 1013.8 0.0
21/02:30pm 25.1 24.0 16.3 58 5.4 ESE 17 22 9 12 1014.3 1014.1 0.0
21/02:00pm 25.2 24.0 16.1 57 5.6 ESE 17 22 9 12 1014.7 1014.5 0.0
21/01:30pm 24.2 22.6 15.1 56 5.5 SE 17 24 9 13 1015.1 1014.9 0.0
21/01:00pm 24.8 23.3 14.3 52 6.2 SE 15 22 8 12 1015.7 1015.5 0.0
21/12:30pm 24.0 21.2 12.6 49 6.5 ESE 19 28 10 15 1016.0 1015.8 0.0
21/12:00pm 24.1 21.4 13.0 50 6.4 ESE 19 24 10 13 1016.5 1016.3 0.0
21/11:30am 23.7 21.2 13.6 53 5.9 E 19 24 10 13 1016.8 1016.6 0.0
21/11:00am 22.7 20.8 12.9 54 5.6 E 15 20 8 11 1017.3 1017.1 0.0
21/10:30am 21.5 18.9 10.6 50 6.0 ENE 15 19 8 10 1017.6 1017.4 0.0
21/10:00am 20.3 17.4 9.8 51 5.6 ENE 15 17 8 9 1017.9 1017.8 0.0
21/09:30am 19.5 16.0 10.2 55 5.0 NE 19 22 10 12 1018.1 1018.0 0.0
21/09:00am 18.3 15.2 10.4 60 4.2 NE 17 22 9 12 1018.0 1017.9 0.2
21/08:30am 17.3 15.0 10.4 64 3.7 NE 13 20 7 11 1017.9 1017.8 0.2
21/08:00am 16.5 13.5 10.6 68 3.1 NE 17 26 9 14 1017.8 1017.7 0.2
21/07:30am 16.6 13.2 10.5 67 3.2 NE 19 24 10 13 1017.3 1017.1 0.2
21/07:00am 15.7 12.8 10.9 73 2.6 NE 17 22 9 12 1017.4 1017.2 0.2
21/06:30am 15.5 12.5 10.7 73 2.5 NE 17 24 9 13 1017.1 1016.9 0.2
21/06:00am 15.7 12.1 10.7 72 2.7 NE 20 28 11 15 1017.0 1016.8 0.2
21/05:30am 15.1 11.8 10.9 76 2.2 NE 19 24 10 13 1016.8 1016.6 0.2
21/05:00am 12.3 10.3 8.6 78 1.8 NNE 9 13 5 7 1017.2 1017.0 0.2
21/04:30am 12.9 10.7 8.0 72 2.4 NNE 9 11 5 6 1017.4 1017.2 0.2
21/04:00am 16.3 12.8 10.2 67 3.2 ENE 19 28 10 15 1017.5 1017.3 0.2
21/03:30am 16.3 11.8 9.9 66 3.4 E 24 32 13 17 1017.3 1017.1 0.2
21/03:00am 16.1 11.9 9.8 66 3.3 E 22 32 12 17 1017.5 1017.3 0.2
21/02:30am 15.9 11.5 9.1 64 3.5 E 22 28 12 15 1017.8 1017.7 0.2
21/02:00am 15.9 11.3 9.8 67 3.2 E 24 30 13 16 1018.0 1017.9 0.2
21/01:30am 15.9 10.8 9.1 64 3.5 E 26 33 14 18 1018.0 1017.9 0.2
21/01:00am 15.8 10.7 9.2 65 3.4 E 26 32 14 17 1018.3 1018.2 0.2
21/12:30am 15.5 10.7 8.7 64 3.5 ESE 24 30 13 16 1018.8 1018.7 0.2
21/12:00am 15.6 11.1 8.6 63 3.6 ESE 22 30 12 16 1019.2 1019.1 0.2
 
Date/Time
CDT
Temp
°C
App
Temp
°C
Dew
Point
°C
Rel
Hum
%
Delta-T
°C
Wind Press
QNH
hPa
Press
MSL
hPa
Rain since
9am
mm
Dir  Spd
km/h
Gust
km/h
Spd
kts
Gust
kts
20/11:30pm 15.7 10.8 8.4 62 3.7 ESE 24 32 13 17 1019.3 1019.2 0.2
20/11:00pm 16.0 10.8 9.0 63 3.6 SE 26 33 14 18 1019.6 1019.5 0.2
20/10:30pm 16.4 11.7 9.1 62 3.8 ESE 24 32 13 17 1019.4 1019.3 0.2

Other Formats:

Comma delimited format used in spreadsheet applications
http://www.bom.gov.au/fwo/IDS60801/IDS60801.95806.axf

JavaScript Object Notation format (JSON) in row-major order
http://www.bom.gov.au/fwo/IDS60801/IDS60801.95806.json